createdAt,value
2023-03-18T00:00:46.061Z,4.63
2023-03-18T00:03:13.384Z,4.50
2023-03-18T00:05:40.623Z,4.57
2023-03-18T00:08:08.238Z,4.80
2023-03-18T00:10:35.760Z,4.23
2023-03-18T00:13:03.383Z,4.70
2023-03-18T00:15:30.619Z,4.63
2023-03-18T00:17:59.284Z,5.10
2023-03-18T00:20:26.718Z,5.00
2023-03-18T00:22:54.694Z,4.87
2023-03-18T00:25:22.095Z,5.40
2023-03-18T00:27:49.456Z,4.83
2023-03-18T00:30:16.776Z,4.27
2023-03-18T00:32:44.016Z,4.40
2023-03-18T00:35:12.725Z,6.10
2023-03-18T00:37:39.997Z,4.70
2023-03-18T00:40:10.469Z,4.60
2023-03-18T00:42:39.512Z,4.63
2023-03-18T00:45:08.823Z,5.10
2023-03-18T00:47:36.446Z,5.00
2023-03-18T00:50:04.782Z,5.70
2023-03-18T00:52:33.649Z,5.63
2023-03-18T00:55:01.424Z,5.93
2023-03-18T00:57:30.303Z,4.93
2023-03-18T00:59:58.174Z,5.03
2023-03-18T01:02:27.191Z,4.53
2023-03-18T01:04:54.542Z,5.27
2023-03-18T01:07:21.849Z,5.10
2023-03-18T01:09:50.696Z,5.00
2023-03-18T01:12:18.743Z,5.03
2023-03-18T01:14:46.089Z,4.90
2023-03-18T01:17:13.715Z,4.57
2023-03-18T01:19:41.183Z,5.27
2023-03-18T01:22:08.753Z,4.57
2023-03-18T01:24:42.635Z,5.20
2023-03-18T01:27:12.698Z,4.90
2023-03-18T01:29:41.056Z,7.63
2023-03-18T01:32:14.796Z,5.63
2023-03-18T01:34:42.678Z,5.23
2023-03-18T01:37:10.128Z,4.60
2023-03-18T01:39:39.813Z,4.50
2023-03-18T01:42:14.752Z,3.93
2023-03-18T01:44:42.237Z,5.33
2023-03-18T01:47:10.196Z,5.00
2023-03-18T01:49:43.254Z,5.07
2023-03-18T01:52:14.362Z,5.57
2023-03-18T01:54:45.328Z,5.33
2023-03-18T01:57:15.325Z,5.10
2023-03-18T01:59:43.105Z,5.10
2023-03-18T02:02:12.373Z,5.20
2023-03-18T02:04:42.425Z,5.10
2023-03-18T02:07:15.801Z,5.80
2023-03-18T02:09:43.710Z,4.97
2023-03-18T02:12:13.083Z,5.50
2023-03-18T02:14:42.127Z,5.40
2023-03-18T02:17:13.802Z,5.53
2023-03-18T02:19:54.762Z,5.90
2023-03-18T02:22:29.709Z,6.17
2023-03-18T02:25:13.124Z,6.00
2023-03-18T02:27:44.952Z,6.00
2023-03-18T02:30:17.097Z,5.90
2023-03-18T02:32:48.290Z,5.93
2023-03-18T02:35:15.635Z,6.50
2023-03-18T02:37:43.137Z,7.00
2023-03-18T02:40:17.513Z,6.30
2023-03-18T02:42:48.005Z,6.70
2023-03-18T02:45:31.650Z,6.70
2023-03-18T02:48:11.684Z,6.53
2023-03-18T02:50:41.210Z,6.23
2023-03-18T02:53:11.881Z,5.90
2023-03-18T02:55:39.474Z,6.07
2023-03-18T02:58:08.150Z,6.30
2023-03-18T03:00:36.545Z,6.03
2023-03-18T03:03:05.008Z,6.50
2023-03-18T03:05:34.334Z,6.83
2023-03-18T03:08:02.151Z,6.87
2023-03-18T03:10:32.245Z,6.80
2023-03-18T03:12:59.917Z,6.97
2023-03-18T03:15:31.656Z,6.30
2023-03-18T03:18:00.258Z,7.33
2023-03-18T03:20:27.536Z,7.37
2023-03-18T03:22:54.851Z,8.07
2023-03-18T03:25:22.438Z,7.00
2023-03-18T03:27:49.709Z,7.60
2023-03-18T03:30:18.392Z,6.90
2023-03-18T03:32:47.323Z,7.80
2023-03-18T03:35:18.438Z,7.03
2023-03-18T03:37:46.354Z,7.97
2023-03-18T03:40:15.973Z,7.33
2023-03-18T03:42:44.742Z,7.97
2023-03-18T03:45:13.338Z,7.20
2023-03-18T03:47:41.562Z,8.20
2023-03-18T03:50:11.722Z,7.37
2023-03-18T03:52:39.794Z,6.83
2023-03-18T03:55:09.221Z,7.90
2023-03-18T03:57:37.012Z,7.10
2023-03-18T04:00:05.973Z,6.83
2023-03-18T04:02:42.469Z,8.00
2023-03-18T04:05:14.921Z,6.70
2023-03-18T04:07:42.358Z,7.97
2023-03-18T04:10:12.107Z,7.30
2023-03-18T04:12:39.855Z,7.43
2023-03-18T04:15:09.015Z,7.00
2023-03-18T04:17:37.157Z,7.07
2023-03-18T04:20:05.234Z,8.07
2023-03-18T04:22:34.607Z,7.97
2023-03-18T04:25:04.793Z,6.80
2023-03-18T04:27:32.801Z,8.33
2023-03-18T04:30:07.157Z,8.73
2023-03-18T04:32:41.191Z,7.37
2023-03-18T04:35:09.597Z,8.27
2023-03-18T04:37:38.248Z,7.63
2023-03-18T04:40:07.622Z,8.70
2023-03-18T04:42:35.594Z,7.30
2023-03-18T04:45:03.594Z,8.30
2023-03-18T04:47:30.889Z,8.20
2023-03-18T04:49:58.203Z,7.63
2023-03-18T04:52:25.630Z,8.50
2023-03-18T04:54:55.229Z,8.50
2023-03-18T04:57:22.644Z,8.23
2023-03-18T04:59:54.477Z,9.27
2023-03-18T05:02:22.650Z,8.40
2023-03-18T05:04:50.010Z,7.97
2023-03-18T05:07:17.740Z,7.77
2023-03-18T05:09:57.639Z,7.57
2023-03-18T05:12:25.197Z,9.37
2023-03-18T05:14:52.953Z,8.87
2023-03-18T05:17:20.262Z,8.17
2023-03-18T05:19:55.259Z,8.67
2023-03-18T05:22:24.345Z,8.63
2023-03-18T05:25:04.854Z,9.73
2023-03-18T05:27:32.741Z,10.10
2023-03-18T05:30:09.150Z,9.07
2023-03-18T05:32:40.257Z,9.73
2023-03-18T05:35:10.234Z,9.50
2023-03-18T05:37:46.145Z,9.63
2023-03-18T05:40:15.350Z,8.50
2023-03-18T05:42:56.126Z,10.40
2023-03-18T05:45:33.034Z,9.50
2023-03-18T05:48:00.564Z,9.33
2023-03-18T05:50:30.956Z,10.17
2023-03-18T05:52:59.584Z,10.00
2023-03-18T05:55:29.403Z,10.43
2023-03-18T05:57:56.913Z,10.83
2023-03-18T06:00:25.400Z,9.87
2023-03-18T06:02:52.877Z,10.00
2023-03-18T06:05:20.863Z,10.10
2023-03-18T06:07:49.069Z,9.67
2023-03-18T06:10:16.726Z,10.13
2023-03-18T06:12:47.005Z,10.70
2023-03-18T06:15:14.274Z,9.30
2023-03-18T06:17:41.888Z,10.20
2023-03-18T06:20:11.469Z,10.70
2023-03-18T06:22:39.116Z,10.80
2023-03-18T06:25:07.783Z,10.10
2023-03-18T06:27:38.344Z,9.80
2023-03-18T06:30:09.318Z,10.73
2023-03-18T06:32:38.065Z,10.97
2023-03-18T06:35:06.379Z,10.23
2023-03-18T06:37:34.011Z,11.00
2023-03-18T06:40:01.468Z,11.50
2023-03-18T06:42:28.940Z,10.17
2023-03-18T06:45:11.202Z,10.20
2023-03-18T06:47:48.109Z,11.40
2023-03-18T06:50:16.142Z,11.10
2023-03-18T06:52:44.420Z,11.00
2023-03-18T06:55:15.800Z,12.43
2023-03-18T06:57:45.712Z,12.13
2023-03-18T07:00:20.758Z,11.47
2023-03-18T07:02:49.164Z,12.77
2023-03-18T07:05:18.579Z,12.20
2023-03-18T07:07:49.105Z,14.60
2023-03-18T07:10:20.804Z,13.97
2023-03-18T07:12:48.977Z,14.20
2023-03-18T07:15:20.981Z,14.43
2023-03-18T07:17:49.356Z,13.23
2023-03-18T07:20:17.234Z,13.83
2023-03-18T07:22:45.605Z,16.03
2023-03-18T07:25:13.098Z,15.20
2023-03-18T07:27:41.438Z,15.30
2023-03-18T07:30:10.362Z,16.93
2023-03-18T07:32:39.345Z,16.10
2023-03-18T07:35:08.172Z,14.70
2023-03-18T07:37:35.566Z,15.00
2023-03-18T07:40:03.041Z,15.23
2023-03-18T07:42:30.229Z,15.13
2023-03-18T07:44:57.800Z,17.23
2023-03-18T07:47:25.101Z,16.20
2023-03-18T07:49:53.724Z,15.93
2023-03-18T07:52:21.085Z,15.53
2023-03-18T07:54:48.334Z,14.47
2023-03-18T07:57:15.628Z,14.80
2023-03-18T07:59:42.832Z,14.50
2023-03-18T08:02:12.730Z,14.50
2023-03-18T08:04:40.103Z,15.17
2023-03-18T08:07:08.995Z,15.37
2023-03-18T08:09:36.486Z,15.47
2023-03-18T08:12:04.251Z,14.60
2023-03-18T08:14:31.470Z,14.10
2023-03-18T08:16:58.788Z,14.70
2023-03-18T08:19:26.012Z,13.90
2023-03-18T08:21:53.305Z,13.50
2023-03-18T08:24:22.017Z,15.40
2023-03-18T08:26:49.226Z,14.70
2023-03-18T08:29:16.453Z,13.50
2023-03-18T08:31:44.022Z,14.33
2023-03-18T08:34:11.241Z,14.40
2023-03-18T08:36:40.919Z,13.50
2023-03-18T08:39:08.227Z,13.50
2023-03-18T08:41:37.198Z,13.37
2023-03-18T08:44:05.301Z,13.80
2023-03-18T08:46:32.731Z,13.67
2023-03-18T08:49:00.255Z,12.83
2023-03-18T08:51:27.834Z,13.27
2023-03-18T08:53:55.391Z,13.70
2023-03-18T08:56:23.198Z,14.33
2023-03-18T08:58:52.212Z,12.53
2023-03-18T09:01:20.226Z,13.37
2023-03-18T09:03:47.705Z,13.90
2023-03-18T09:06:15.318Z,14.60
2023-03-18T09:08:42.849Z,14.63
2023-03-18T09:11:10.176Z,14.30
2023-03-18T09:13:39.129Z,14.03
2023-03-18T09:16:08.099Z,13.00
2023-03-18T09:18:35.314Z,15.83
2023-03-18T09:21:02.999Z,13.40
2023-03-18T09:23:30.261Z,14.87
2023-03-18T09:25:57.776Z,14.23
2023-03-18T09:28:25.696Z,14.47
2023-03-18T09:30:53.023Z,16.07
2023-03-18T09:33:21.745Z,14.90
2023-03-18T09:35:49.223Z,15.80
2023-03-18T09:38:18.089Z,15.90
2023-03-18T09:40:57.711Z,15.33
2023-03-18T09:43:42.066Z,14.70
2023-03-18T09:46:19.124Z,16.70
2023-03-18T09:49:02.347Z,14.90
2023-03-18T09:51:40.310Z,16.27
2023-03-18T09:54:13.781Z,15.13
2023-03-18T09:56:43.341Z,15.00
2023-03-18T09:59:18.474Z,16.00
2023-03-18T10:01:49.103Z,16.70
2023-03-18T10:04:22.252Z,15.30
2023-03-18T10:06:53.456Z,16.03
2023-03-18T10:09:26.200Z,17.00
2023-03-18T10:11:59.585Z,15.70
2023-03-18T10:14:37.697Z,14.10
2023-03-18T10:17:16.321Z,15.93
2023-03-18T10:19:48.545Z,18.40
2023-03-18T10:22:31.144Z,16.40
2023-03-18T10:25:07.661Z,17.53
2023-03-18T10:27:48.863Z,17.47
2023-03-18T10:30:34.498Z,17.70
2023-03-18T10:33:09.464Z,17.40
2023-03-18T10:35:48.645Z,17.63
2023-03-18T10:38:22.266Z,17.07
2023-03-18T10:40:49.693Z,18.20
2023-03-18T10:43:19.761Z,16.07
2023-03-18T10:45:50.983Z,18.00
2023-03-18T10:48:23.948Z,17.70
2023-03-18T10:51:02.708Z,17.37
2023-03-18T10:53:34.574Z,18.30
2023-03-18T10:56:06.552Z,17.40
2023-03-18T10:58:34.737Z,18.77
2023-03-18T11:01:01.962Z,16.30
2023-03-18T11:03:33.634Z,16.30
2023-03-18T11:06:04.536Z,16.70
2023-03-18T11:08:36.823Z,19.30
2023-03-18T11:11:22.038Z,21.67
2023-03-18T11:13:51.043Z,20.33
2023-03-18T11:16:32.953Z,20.10
2023-03-18T11:19:06.013Z,22.00
2023-03-18T11:21:35.119Z,21.63
2023-03-18T11:24:02.317Z,22.17
2023-03-18T11:26:30.517Z,21.70
2023-03-18T11:28:59.549Z,21.10
2023-03-18T11:31:26.759Z,21.90
2023-03-18T11:33:57.693Z,19.80
2023-03-18T11:36:27.949Z,20.83
2023-03-18T11:38:58.910Z,21.60
2023-03-18T11:41:27.459Z,23.67
2023-03-18T11:43:56.358Z,19.60
2023-03-18T11:46:26.396Z,22.70
2023-03-18T11:48:53.631Z,20.70
2023-03-18T11:51:33.248Z,21.77
2023-03-18T11:54:22.547Z,19.87
2023-03-18T11:56:55.503Z,19.37
2023-03-18T11:59:44.444Z,18.73
2023-03-18T12:02:34.127Z,17.57
2023-03-18T12:05:26.058Z,17.13
2023-03-18T12:08:03.046Z,15.70
2023-03-18T12:10:36.079Z,15.00
2023-03-18T12:13:17.293Z,17.30
2023-03-18T12:15:54.308Z,16.63
2023-03-18T12:18:48.629Z,16.83
2023-03-18T12:21:32.390Z,14.40
2023-03-18T12:24:17.155Z,13.00
2023-03-18T12:26:55.688Z,12.50
2023-03-18T12:29:49.662Z,13.43
2023-03-18T12:32:25.913Z,12.60
2023-03-18T12:35:07.300Z,13.77
2023-03-18T12:37:46.622Z,11.90
2023-03-18T12:40:26.436Z,12.70
2023-03-18T12:43:14.882Z,13.67
2023-03-18T12:45:45.642Z,13.30
2023-03-18T12:48:16.551Z,13.57
2023-03-18T12:50:49.624Z,13.90
2023-03-18T12:53:22.202Z,13.30
2023-03-18T12:55:55.094Z,13.20
2023-03-18T12:58:27.478Z,9.40
2023-03-18T13:00:59.764Z,7.90
2023-03-18T13:03:32.277Z,9.70
2023-03-18T13:06:05.240Z,9.40
2023-03-18T13:08:52.723Z,10.47
2023-03-18T13:11:36.467Z,9.63
2023-03-18T13:14:12.913Z,11.10
2023-03-18T13:16:41.344Z,8.07
2023-03-18T13:19:09.120Z,7.80
2023-03-18T13:21:43.205Z,6.17
2023-03-18T13:24:29.843Z,6.93
2023-03-18T13:27:17.022Z,7.53
2023-03-18T13:29:54.547Z,7.57
2023-03-18T13:32:37.387Z,8.13
2023-03-18T13:35:34.304Z,9.00
2023-03-18T13:38:25.462Z,8.30
2023-03-18T13:41:37.919Z,7.40
2023-03-18T13:44:11.843Z,6.60
2023-03-18T13:46:46.870Z,7.40
2023-03-18T13:49:20.389Z,6.60
2023-03-18T13:51:51.227Z,6.83
2023-03-18T13:54:20.425Z,6.37
2023-03-18T13:56:51.306Z,6.27
2023-03-18T13:59:44.663Z,6.20
2023-03-18T14:02:34.736Z,7.37
2023-03-18T14:05:02.174Z,7.10
2023-03-18T14:07:29.493Z,8.17
2023-03-18T14:10:19.451Z,8.60
2023-03-18T14:12:49.929Z,8.90
2023-03-18T14:15:40.911Z,8.67
2023-03-18T14:18:27.477Z,7.90
2023-03-18T14:21:01.670Z,7.03
2023-03-18T14:23:42.332Z,7.43
2023-03-18T14:26:23.926Z,7.50
2023-03-18T14:28:55.998Z,7.80
2023-03-18T14:31:31.712Z,7.90
2023-03-18T14:34:22.618Z,7.40
2023-03-18T14:37:20.222Z,6.53
2023-03-18T14:39:50.825Z,5.70
2023-03-18T14:42:28.272Z,6.20
2023-03-18T14:45:00.957Z,6.07
2023-03-18T14:47:39.678Z,6.30
2023-03-18T14:50:16.282Z,7.17
2023-03-18T14:52:51.978Z,7.70
2023-03-18T14:55:22.322Z,8.97
2023-03-18T14:57:50.368Z,9.07
2023-03-18T15:00:19.473Z,8.87
2023-03-18T15:02:47.073Z,8.30
2023-03-18T15:05:18.800Z,7.93
2023-03-18T15:07:51.289Z,8.00
2023-03-18T15:10:22.310Z,8.27
2023-03-18T15:12:58.276Z,9.13
2023-03-18T15:15:25.560Z,10.00
2023-03-18T15:17:52.793Z,9.40
2023-03-18T15:20:22.967Z,12.77
2023-03-18T15:22:50.826Z,8.93
2023-03-18T15:25:20.572Z,8.10
2023-03-18T15:27:49.423Z,9.37
2023-03-18T15:30:24.466Z,9.70
2023-03-18T15:33:00.994Z,8.87
2023-03-18T15:35:30.190Z,8.90
2023-03-18T15:38:15.508Z,8.93
2023-03-18T15:40:47.884Z,10.10
2023-03-18T15:43:29.417Z,8.43
2023-03-18T15:45:58.901Z,9.27
2023-03-18T15:48:34.235Z,9.13
2023-03-18T15:51:05.665Z,9.87
2023-03-18T15:53:40.605Z,9.90
2023-03-18T15:56:14.874Z,10.90
2023-03-18T15:58:42.345Z,10.77
2023-03-18T16:01:15.850Z,10.10
2023-03-18T16:03:44.820Z,10.77
2023-03-18T16:06:14.261Z,11.20
2023-03-18T16:08:41.468Z,12.07
2023-03-18T16:11:11.147Z,10.00
2023-03-18T16:13:38.820Z,12.17
2023-03-18T16:16:09.298Z,12.37
2023-03-18T16:18:36.621Z,12.90
2023-03-18T16:21:04.063Z,14.10
2023-03-18T16:23:32.630Z,13.30
2023-03-18T16:25:59.872Z,12.93
2023-03-18T16:28:27.669Z,13.07
2023-03-18T16:30:55.371Z,12.37
2023-03-18T16:33:23.807Z,13.40
2023-03-18T16:35:56.229Z,13.77
2023-03-18T16:38:23.529Z,13.10
2023-03-18T16:40:54.723Z,12.70
2023-03-18T16:43:24.701Z,13.00
2023-03-18T16:45:52.109Z,24.53
2023-03-18T16:48:21.068Z,16.20
2023-03-18T16:50:50.739Z,14.03
2023-03-18T16:53:21.587Z,12.50
2023-03-18T16:55:50.719Z,14.73
2023-03-18T16:58:23.132Z,14.40
2023-03-18T17:00:50.422Z,19.03
2023-03-18T17:03:19.334Z,16.30
2023-03-18T17:05:48.966Z,15.70
2023-03-18T17:08:17.268Z,16.07
2023-03-18T17:10:45.647Z,15.00
2023-03-18T17:13:18.967Z,14.93
2023-03-18T17:15:47.584Z,15.70
2023-03-18T17:18:16.819Z,16.80
2023-03-18T17:20:44.998Z,17.10
2023-03-18T17:23:17.052Z,17.17
2023-03-18T17:25:48.342Z,16.30
2023-03-18T17:28:21.939Z,16.83
2023-03-18T17:30:51.036Z,22.37
2023-03-18T17:33:24.665Z,19.00
2023-03-18T17:35:53.163Z,19.07
2023-03-18T17:38:21.183Z,16.80
2023-03-18T17:40:49.616Z,16.80
2023-03-18T17:43:21.107Z,17.63
2023-03-18T17:45:50.226Z,17.23
2023-03-18T17:48:19.532Z,16.93
2023-03-18T17:50:48.839Z,18.30
2023-03-18T17:53:29.777Z,17.60
2023-03-18T17:55:57.532Z,19.17
2023-03-18T17:58:28.427Z,19.03
2023-03-18T18:01:02.693Z,17.83
2023-03-18T18:03:30.589Z,19.70
2023-03-18T18:05:58.746Z,18.60
2023-03-18T18:08:27.502Z,18.17
2023-03-18T18:11:00.305Z,17.30
2023-03-18T18:13:28.938Z,18.00
2023-03-18T18:15:58.189Z,17.33
2023-03-18T18:18:27.875Z,18.40
2023-03-18T18:20:57.585Z,18.30
2023-03-18T18:23:30.724Z,17.13
2023-03-18T18:26:00.272Z,18.37
2023-03-18T18:28:31.333Z,17.80
2023-03-18T18:31:01.244Z,16.63
2023-03-18T18:33:30.577Z,23.20
2023-03-18T18:35:58.008Z,22.73
2023-03-18T18:38:25.379Z,21.90
2023-03-18T18:40:53.215Z,17.20
2023-03-18T18:43:21.235Z,18.50
2023-03-18T18:45:49.387Z,17.60
2023-03-18T18:48:22.680Z,19.00
2023-03-18T18:50:50.321Z,19.40
2023-03-18T18:53:22.061Z,17.70
2023-03-18T18:55:49.412Z,16.23
2023-03-18T18:58:17.919Z,16.63
2023-03-18T19:00:46.641Z,17.27
2023-03-18T19:03:15.644Z,15.77
2023-03-18T19:05:45.496Z,16.00
2023-03-18T19:08:34.544Z,14.80
2023-03-18T19:11:03.709Z,15.20
2023-03-18T19:13:33.382Z,16.33
2023-03-18T19:16:03.486Z,16.03
2023-03-18T19:18:35.821Z,17.53
2023-03-18T19:21:04.778Z,17.60
2023-03-18T19:23:34.004Z,15.47
2023-03-18T19:26:02.942Z,15.97
2023-03-18T19:28:33.073Z,17.00
2023-03-18T19:31:00.339Z,19.90
2023-03-18T19:33:27.690Z,17.00
2023-03-18T19:35:55.088Z,18.70
2023-03-18T19:38:23.676Z,33.63
2023-03-18T19:40:51.055Z,16.30
2023-03-18T19:43:19.715Z,17.27
2023-03-18T19:45:49.231Z,17.40
2023-03-18T19:48:20.072Z,18.17
2023-03-18T19:50:47.358Z,19.33
2023-03-18T19:53:16.905Z,16.30
2023-03-18T19:55:47.218Z,16.23
2023-03-18T19:58:21.838Z,14.87
2023-03-18T20:00:49.161Z,16.03
2023-03-18T20:03:18.202Z,17.13
2023-03-18T20:05:45.879Z,14.70
2023-03-18T20:08:13.208Z,13.60
2023-03-18T20:10:42.418Z,14.93
2023-03-18T20:13:15.273Z,15.10
2023-03-18T20:15:43.028Z,13.77
2023-03-18T20:18:15.337Z,18.00
2023-03-18T20:20:45.018Z,14.87
2023-03-18T20:23:19.276Z,20.13
2023-03-18T20:25:46.640Z,15.70
2023-03-18T20:28:16.911Z,15.20
2023-03-18T20:30:45.971Z,15.50
2023-03-18T20:33:13.360Z,14.40
2023-03-18T20:35:43.366Z,11.67
2023-03-18T20:38:16.383Z,13.00
2023-03-18T20:40:45.417Z,11.70
2023-03-18T20:43:15.938Z,10.83
2023-03-18T20:45:43.414Z,11.50
2023-03-18T20:48:10.737Z,10.30
2023-03-18T20:50:38.628Z,10.83
2023-03-18T20:53:06.447Z,9.37
2023-03-18T20:55:35.019Z,10.70
2023-03-18T20:58:02.927Z,10.50
2023-03-18T21:00:32.629Z,8.30
2023-03-18T21:03:02.363Z,11.30
2023-03-18T21:05:29.650Z,10.57
2023-03-18T21:07:58.103Z,10.23
2023-03-18T21:10:26.822Z,10.43
2023-03-18T21:12:54.262Z,10.23
2023-03-18T21:15:23.544Z,9.50
2023-03-18T21:17:52.619Z,10.73
2023-03-18T21:20:22.944Z,9.77
2023-03-18T21:22:51.008Z,10.67
2023-03-18T21:25:20.480Z,9.80
2023-03-18T21:27:47.910Z,8.80
2023-03-18T21:30:16.632Z,8.73
2023-03-18T21:32:44.157Z,8.90
2023-03-18T21:35:18.442Z,9.30
2023-03-18T21:37:45.841Z,8.13
2023-03-18T21:40:17.937Z,7.93
2023-03-18T21:42:45.628Z,7.87
2023-03-18T21:45:18.221Z,9.00
2023-03-18T21:47:45.687Z,15.03
2023-03-18T21:50:25.433Z,8.27
2023-03-18T21:52:53.544Z,7.47
2023-03-18T21:55:21.716Z,7.00
2023-03-18T21:57:49.598Z,6.70
2023-03-18T22:00:19.344Z,7.70
2023-03-18T22:02:47.822Z,6.57
2023-03-18T22:05:17.400Z,6.00
2023-03-18T22:07:46.036Z,7.40
2023-03-18T22:10:15.820Z,6.47
2023-03-18T22:12:43.708Z,7.70
2023-03-18T22:15:33.618Z,7.40
2023-03-18T22:18:01.133Z,7.50
2023-03-18T22:20:28.912Z,6.67
2023-03-18T22:22:57.538Z,6.93
2023-03-18T22:25:28.537Z,7.33
2023-03-18T22:27:56.117Z,7.90
2023-03-18T22:30:24.151Z,7.33
2023-03-18T22:32:52.171Z,7.03
2023-03-18T22:35:20.666Z,9.40
2023-03-18T22:37:48.584Z,7.90
2023-03-18T22:40:18.913Z,7.80
2023-03-18T22:42:47.544Z,8.27
2023-03-18T22:45:20.488Z,9.07
2023-03-18T22:47:48.340Z,8.83
2023-03-18T22:50:16.401Z,8.50
2023-03-18T22:52:44.211Z,8.23
2023-03-18T22:55:20.413Z,9.43
2023-03-18T22:57:47.996Z,9.10
2023-03-18T23:00:21.637Z,9.13
2023-03-18T23:02:49.582Z,8.20
2023-03-18T23:05:18.573Z,8.53
2023-03-18T23:07:46.194Z,7.60
2023-03-18T23:10:13.675Z,8.83
2023-03-18T23:12:43.152Z,9.27
2023-03-18T23:15:15.359Z,9.90
2023-03-18T23:17:43.469Z,9.47
2023-03-18T23:20:11.294Z,9.93
2023-03-18T23:22:38.616Z,16.90
2023-03-18T23:25:06.751Z,10.80
2023-03-18T23:27:34.023Z,9.80
2023-03-18T23:30:02.900Z,10.57
2023-03-18T23:32:30.313Z,9.17
2023-03-18T23:34:57.606Z,9.80
2023-03-18T23:37:25.097Z,10.70
2023-03-18T23:39:53.194Z,10.27
2023-03-18T23:42:21.490Z,10.57
2023-03-18T23:44:49.543Z,11.60
2023-03-18T23:47:54.198Z,10.77
2023-03-18T23:50:54.424Z,10.70
2023-03-18T23:53:21.622Z,10.53
2023-03-18T23:55:49.271Z,11.07
2023-03-18T23:58:16.813Z,11.90
